Time;durP1;ratioP1;P1;durP2;ratioP2;P2;SDS_P1;SDS_P2;PMS_P1;PMS_P2;Temp;Humidity;BMP_temperature;BMP_pressure;BME280_temperature;BME280_humidity;BME280_pressure;Samples;Min_cycle;Max_cycle;Signal;HPM_P1;HPM_P2
2022/11/10 00:01:25;;;;;;;14.63;4.95;;;;;;;7.85;100.00;101554.59;6307447;22;20623;-88
2022/11/10 00:03:51;;;;;;;14.05;4.55;;;;;;;7.78;100.00;101548.63;6279304;22;20003;-88
2022/11/10 00:06:16;;;;;;;12.55;4.90;;;;;;;7.82;100.00;101557.38;6305499;22;20042;-88
2022/11/10 00:08:41;;;;;;;11.00;4.65;;;;;;;7.71;100.00;101560.28;6305968;22;20088;-89
2022/11/10 00:11:07;;;;;;;14.98;4.70;;;;;;;7.74;100.00;101562.88;6277773;22;20011;-89
2022/11/10 00:19:04;;;;;;;15.40;5.20;;;;;;;7.63;100.00;101565.81;6314916;22;20034;-89
2022/11/10 00:21:29;;;;;;;12.07;5.13;;;;;;;7.65;100.00;101568.41;6301957;22;19991;-89
2022/11/10 00:23:55;;;;;;;13.68;5.00;;;;;;;7.63;100.00;101572.88;6328395;22;20099;-89
2022/11/10 00:26:20;;;;;;;12.40;5.13;;;;;;;7.59;100.00;101576.53;6300862;22;20045;-88
2022/11/10 00:28:45;;;;;;;12.48;5.00;;;;;;;7.55;100.00;101558.97;6326168;22;19998;-89
2022/11/10 00:31:12;;;;;;;14.32;5.93;;;;;;;7.55;100.00;101567.78;6287222;22;20012;-89
2022/11/10 00:33:39;;;;;;;13.98;5.20;;;;;;;7.52;100.00;101574.94;6304804;22;20043;-88
2022/11/10 00:36:05;;;;;;;14.13;5.20;;;;;;;7.46;100.00;101568.91;6305941;22;20021;-89
2022/11/10 00:38:30;;;;;;;22.58;7.03;;;;;;;7.46;100.00;101584.78;6308463;22;20003;-88
2022/11/10 00:40:57;;;;;;;18.40;6.13;;;;;;;7.44;100.00;101585.72;6280448;22;20080;-89
2022/11/10 00:43:22;;;;;;;15.38;5.57;;;;;;;7.45;100.00;101592.78;6310853;22;20095;-88
2022/11/10 00:45:48;;;;;;;15.98;5.80;;;;;;;7.37;100.00;101589.47;6309910;22;19999;-89
2022/11/10 00:48:13;;;;;;;18.95;6.18;;;;;;;7.36;100.00;101591.25;6282891;22;20014;-90
2022/11/10 00:50:38;;;;;;;15.75;5.82;;;;;;;7.39;100.00;101595.59;6308846;22;20014;-89
2022/11/10 00:53:04;;;;;;;19.98;6.03;;;;;;;7.40;100.00;101600.00;6306938;22;20421;-88
2022/11/10 00:55:29;;;;;;;18.95;6.60;;;;;;;7.39;100.00;101609.69;6304904;22;20354;-88
2022/11/10 00:57:54;;;;;;;16.23;6.28;;;;;;;7.34;100.00;101595.69;6306133;22;20036;-89
2022/11/10 01:00:20;;;;;;;14.95;5.38;;;;;;;7.36;100.00;101603.63;6306323;22;20006;-88
2022/11/10 01:02:45;;;;;;;11.77;5.43;;;;;;;7.33;100.00;101603.69;6308642;22;20018;-87
2022/11/10 01:05:11;;;;;;;16.33;6.70;;;;;;;7.23;100.00;101582.75;6313355;22;20057;-88
2022/11/10 01:07:36;;;;;;;15.20;5.78;;;;;;;7.26;100.00;101587.09;6288175;22;19999;-87
2022/11/10 01:10:01;;;;;;;14.20;5.50;;;;;;;7.28;100.00;101593.22;6286091;22;20053;-88
2022/11/10 01:12:30;;;;;;;13.38;5.72;;;;;;;7.26;100.00;101596.81;6315489;22;20003;-87
2022/11/10 01:14:55;;;;;;;13.27;5.53;;;;;;;7.22;100.00;101599.53;6306976;22;20012;-88
2022/11/10 01:17:21;;;;;;;13.60;5.63;;;;;;;7.16;100.00;101591.75;6277748;22;20096;-89
2022/11/10 01:19:46;;;;;;;14.35;5.75;;;;;;;7.23;100.00;101609.22;6279064;22;19995;-88
2022/11/10 01:22:11;;;;;;;14.70;5.43;;;;;;;7.15;100.00;101592.66;6279502;22;20053;-89
2022/11/10 01:24:36;;;;;;;17.73;6.40;;;;;;;7.20;100.00;101605.78;6303492;22;20003;-90
2022/11/10 01:27:02;;;;;;;14.85;6.18;;;;;;;7.10;100.00;101599.81;6277403;22;20042;-88
2022/11/10 01:29:27;;;;;;;15.73;5.80;;;;;;;7.12;100.00;101613.91;6278539;22;20086;-88
2022/11/10 01:31:52;;;;;;;18.05;6.30;;;;;;;7.15;100.00;101624.44;6304734;22;20564;-88
2022/11/10 01:34:18;;;;;;;13.73;5.28;;;;;;;7.16;100.00;101633.25;6304068;22;19996;-88
2022/11/10 01:36:43;;;;;;;16.38;5.28;;;;;;;7.12;100.00;101636.88;6302195;22;20010;-88
2022/11/10 01:39:08;;;;;;;15.88;5.40;;;;;;;7.11;100.00;101637.78;6303735;22;20034;-89
2022/11/10 01:41:33;;;;;;;11.85;5.47;;;;;;;7.15;100.00;101639.44;6304951;22;20028;-89
2022/11/10 01:44:20;;;;;;;12.02;5.85;;;;;;;7.11;100.00;101635.13;6304838;22;20025;-88
2022/11/10 01:46:45;;;;;;;17.42;5.20;;;;;;;7.13;100.00;101649.19;6304959;22;20369;-89
2022/11/10 01:49:13;;;;;;;15.27;5.65;;;;;;;7.11;100.00;101645.72;6305235;22;20439;-89
2022/11/10 01:51:49;;;;;;;17.50;6.13;;;;;;;7.11;100.00;101637.78;6304909;22;20017;-88
2022/11/10 01:54:23;;;;;;;12.88;5.10;;;;;;;7.12;100.00;101647.47;6303505;22;19999;-88
2022/11/10 01:56:55;;;;;;;17.65;6.32;;;;;;;7.11;100.00;101643.94;6306396;22;19995;-88
2022/11/10 01:59:24;;;;;;;11.57;5.13;;;;;;;7.12;100.00;101639.50;6307051;22;20010;-89
2022/11/10 02:01:53;;;;;;;16.52;5.55;;;;;;;7.11;100.00;101651.03;6307636;22;20457;-89
2022/11/10 02:04:19;;;;;;;12.23;4.95;;;;;;;7.08;100.00;101636.06;6307751;22;20007;-90
2022/11/10 02:06:48;;;;;;;14.40;5.57;;;;;;;7.04;100.00;101626.47;6306568;22;20006;-89
2022/11/10 02:09:15;;;;;;;15.43;5.35;;;;;;;7.08;100.00;101633.41;6304351;22;20047;-88
2022/11/10 02:11:42;;;;;;;14.85;5.25;;;;;;;7.09;100.00;101639.59;6304251;22;20026;-88
2022/11/10 02:14:08;;;;;;;14.15;5.35;;;;;;;7.06;100.00;101639.66;6303021;22;20006;-89
2022/11/10 02:16:35;;;;;;;14.13;5.22;;;;;;;7.03;100.00;101631.81;6303186;22;19999;-87
2022/11/10 02:19:22;;;;;;;20.40;5.50;;;;;;;7.09;100.00;101634.28;6304593;22;20027;-89
2022/11/10 02:21:48;;;;;;;16.20;5.32;;;;;;;7.11;100.00;101640.44;6303360;22;20014;-88
2022/11/10 02:24:13;;;;;;;13.45;5.30;;;;;;;7.16;100.00;101638.53;6304221;22;19999;-88
2022/11/10 02:26:45;;;;;;;16.65;5.95;;;;;;;7.14;100.00;101635.91;6304386;22;19999;-88
2022/11/10 02:29:11;;;;;;;15.85;5.05;;;;;;;7.15;100.00;101648.25;6304456;22;20003;-88
2022/11/10 02:31:37;;;;;;;17.23;5.28;;;;;;;7.11;100.00;101653.66;6305842;22;20003;-88
2022/11/10 02:34:02;;;;;;;14.85;4.90;;;;;;;7.09;100.00;101658.97;6303690;22;20054;-88
2022/11/10 02:36:27;;;;;;;16.65;5.65;;;;;;;7.13;100.00;101665.06;6301824;22;20452;-88
2022/11/10 02:38:52;;;;;;;14.23;4.65;;;;;;;7.09;100.00;101668.69;6303523;22;20007;-88
2022/11/10 02:41:18;;;;;;;17.95;5.28;;;;;;;7.12;100.00;101677.44;6304530;22;20003;-88
2022/11/10 02:43:43;;;;;;;13.27;5.43;;;;;;;7.11;100.00;101690.72;6276857;22;19999;-88
2022/11/10 02:46:08;;;;;;;18.52;5.70;;;;;;;7.09;100.00;101696.03;6305328;22;20065;-89
2022/11/10 02:48:34;;;;;;;12.15;4.72;;;;;;;7.10;100.00;101691.63;6278243;22;20019;-88
2022/11/10 02:50:59;;;;;;;16.67;5.18;;;;;;;7.13;100.00;101705.66;6306718;22;19999;-88
2022/11/10 02:53:24;;;;;;;16.88;4.50;;;;;;;7.08;100.00;101693.44;6320991;22;20007;-88
2022/11/10 02:55:49;;;;;;;13.80;5.07;;;;;;;7.11;100.00;101707.47;6299541;22;20073;-89
2022/11/10 02:58:15;;;;;;;15.38;5.00;;;;;;;7.07;100.00;101705.81;6298629;22;20011;-88
2022/11/10 03:00:40;;;;;;;12.60;4.50;;;;;;;7.08;100.00;101704.03;6291907;22;20014;-88
2022/11/10 03:03:05;;;;;;;16.65;5.15;;;;;;;7.00;100.00;101685.66;6305701;22;20002;-87
2022/11/10 03:05:31;;;;;;;14.02;4.63;;;;;;;7.05;100.00;101693.50;6306137;22;20026;-89
2022/11/10 03:08:01;;;;;;;17.55;6.20;;;;;;;6.99;100.00;101692.75;6306579;22;20003;-89
2022/11/10 03:10:27;;;;;;;14.18;4.78;;;;;;;6.96;100.00;101700.75;6307225;22;20061;-89
2022/11/10 03:12:57;;;;;;;15.60;5.18;;;;;;;6.92;100.00;101701.72;6309700;22;20691;-88
2022/11/10 03:15:23;;;;;;;14.85;5.20;;;;;;;6.89;100.00;101707.06;6308046;22;20003;-89
2022/11/10 03:17:49;;;;;;;14.65;4.72;;;;;;;6.89;100.00;101708.84;6305420;22;20029;-89
2022/11/10 03:20:16;;;;;;;15.50;4.80;;;;;;;6.83;100.00;101712.50;6306386;22;20013;-88
2022/11/10 03:22:41;;;;;;;16.40;5.78;;;;;;;6.86;100.00;101715.09;6308445;22;20011;-88
2022/11/10 03:25:08;;;;;;;17.98;5.70;;;;;;;6.85;100.00;101723.91;6305699;22;20333;-88
2022/11/10 03:27:33;;;;;;;15.02;5.18;;;;;;;6.86;100.00;101723.03;6306661;22;20017;-88
2022/11/10 03:29:58;;;;;;;14.07;5.22;;;;;;;6.82;100.00;101716.06;6307012;22;20106;-88
2022/11/10 03:32:24;;;;;;;14.55;5.25;;;;;;;6.76;100.00;101713.53;6306241;22;20612;-89
2022/11/10 03:34:49;;;;;;;17.80;5.50;;;;;;;6.79;100.00;101728.47;6306594;22;20007;-89
2022/11/10 03:37:14;;;;;;;15.32;5.28;;;;;;;6.54;100.00;101696.38;6305878;22;20003;-89
2022/11/10 03:39:39;;;;;;;15.80;5.35;;;;;;;6.71;100.00;101726.84;6304837;22;20010;-89
2022/11/10 03:42:05;;;;;;;16.52;5.22;;;;;;;6.77;100.00;101743.50;6303596;22;20034;-88
2022/11/10 03:44:30;;;;;;;20.13;5.35;;;;;;;6.73;100.00;101755.94;6304324;22;20452;-88
2022/11/10 03:46:56;;;;;;;14.20;5.20;;;;;;;6.67;100.00;101749.00;6303382;22;20074;-88
2022/11/10 03:49:21;;;;;;;16.23;4.93;;;;;;;6.71;100.00;101748.03;6306525;22;20052;-88
2022/11/10 03:51:46;;;;;;;12.85;4.68;;;;;;;6.70;100.00;101748.06;6305006;22;20003;-89
2022/11/10 03:54:11;;;;;;;16.15;5.32;;;;;;;6.66;100.00;101743.75;6313788;22;20036;-87
2022/11/10 03:56:37;;;;;;;17.17;5.78;;;;;;;6.65;100.00;101742.00;6288157;22;20086;-88
2022/11/10 03:59:02;;;;;;;20.67;5.40;;;;;;;6.76;100.00;101766.44;6312941;22;19999;-88
2022/11/10 04:01:27;;;;;;;17.42;5.55;;;;;;;6.68;100.00;101753.38;6312765;22;20162;-88
2022/11/10 04:03:53;;;;;;;15.02;5.40;;;;;;;6.72;100.00;101770.06;6279095;22;20018;-89
2022/11/10 04:09:04;;;;;;;17.20;6.00;;;;;;;6.71;100.00;101765.69;6305501;22;20021;-89
2022/11/10 04:17:00;;;;;;;15.15;5.15;;;;;;;6.69;100.00;101778.94;6305584;22;20452;-87
2022/11/10 04:19:26;;;;;;;21.92;6.28;;;;;;;6.72;100.00;101791.22;6302623;22;20068;-87
2022/11/10 04:21:51;;;;;;;17.75;6.20;;;;;;;6.68;100.00;101795.69;6305823;22;20011;-88
2022/11/10 04:24:17;;;;;;;20.40;5.68;;;;;;;6.66;100.00;101794.88;6276332;22;20010;-89
2022/11/10 04:26:43;;;;;;;17.08;5.45;;;;;;;6.70;100.00;101803.63;6306475;22;19995;-89
2022/11/10 04:29:11;;;;;;;19.17;5.82;;;;;;;6.70;100.00;101806.28;6276585;22;20003;-88
2022/11/10 04:31:38;;;;;;;20.92;5.57;;;;;;;6.67;100.00;101815.13;6305737;22;20018;-88
2022/11/10 04:34:05;;;;;;;22.13;6.30;;;;;;;6.67;100.00;101811.59;6274765;22;20011;-88
2022/11/10 04:36:33;;;;;;;16.42;5.38;;;;;;;6.67;100.00;101822.19;6303635;22;20413;-87
2022/11/10 04:38:59;;;;;;;18.48;5.60;;;;;;;6.63;100.00;101813.44;6303541;22;20333;-88
2022/11/10 04:41:25;;;;;;;19.08;5.93;;;;;;;6.65;100.00;101826.66;6305807;22;20044;-89
2022/11/10 04:43:51;;;;;;;15.85;5.00;;;;;;;6.57;100.00;101818.84;6277161;22;20057;-88
2022/11/10 04:46:22;;;;;;;15.23;5.95;;;;;;;6.66;100.00;101831.91;6305425;22;20065;-88
2022/11/10 04:48:48;;;;;;;16.88;5.60;;;;;;;6.66;100.00;101834.56;6304903;22;19998;-88
2022/11/10 04:51:14;;;;;;;19.90;6.45;;;;;;;6.63;100.00;101834.59;6303938;22;20007;-88
2022/11/10 04:53:39;;;;;;;13.95;5.35;;;;;;;6.64;100.00;101846.06;6302496;22;20554;-88
2022/11/10 04:56:05;;;;;;;19.30;5.93;;;;;;;6.59;100.00;101843.50;6303244;22;20007;-88
2022/11/10 04:58:30;;;;;;;18.42;5.57;;;;;;;6.61;100.00;101846.13;6304627;22;20064;-88
2022/11/10 05:00:56;;;;;;;17.77;6.43;;;;;;;6.57;100.00;101847.09;6305912;22;20038;-88
2022/11/10 05:03:21;;;;;;;18.88;5.32;;;;;;;6.53;100.00;101837.47;6306410;22;20012;-88
2022/11/10 05:05:48;;;;;;;20.92;5.63;;;;;;;6.44;100.00;101846.44;6278374;22;19995;-87
2022/11/10 05:08:13;;;;;;;16.42;5.18;;;;;;;6.58;100.00;101862.06;6306091;22;20057;-88
2022/11/10 05:10:39;;;;;;;23.73;6.25;;;;;;;6.51;100.00;101855.97;6303773;22;20007;-88
2022/11/10 05:13:04;;;;;;;18.13;6.00;;;;;;;6.51;100.00;101866.56;6305374;22;20056;-88
2022/11/10 05:15:31;;;;;;;22.58;5.85;;;;;;;6.52;100.00;101867.44;6306997;22;20006;-88
2022/11/10 05:17:57;;;;;;;15.00;5.10;;;;;;;6.54;100.00;101878.88;6307093;22;20062;-87
2022/11/10 05:20:23;;;;;;;19.15;6.20;;;;;;;6.47;100.00;101872.81;6279343;22;20011;-88
2022/11/10 05:25:36;;;;;;;19.60;6.57;;;;;;;6.52;100.00;101883.31;6316179;22;20045;-89
2022/11/10 05:28:03;;;;;;;14.35;5.75;;;;;;;6.52;100.00;101888.59;6321309;22;20006;-89
2022/11/10 05:30:28;;;;;;;17.90;6.05;;;;;;;6.49;100.00;101879.81;6297347;22;20003;-88
2022/11/10 05:32:54;;;;;;;20.13;6.13;;;;;;;6.48;100.00;101888.66;6322940;22;20011;-88
2022/11/10 05:35:19;;;;;;;15.23;5.60;;;;;;;6.38;100.00;101875.63;6317624;22;20436;-88
2022/11/10 05:37:44;;;;;;;22.60;6.72;;;;;;;6.47;100.00;101886.91;6307652;22;20033;-87
2022/11/10 05:40:10;;;;;;;19.08;6.50;;;;;;;6.44;100.00;101871.09;6307599;22;20006;-88
2022/11/10 05:42:47;;;;;;;22.13;6.43;;;;;;;6.44;100.00;101879.03;6306755;22;20007;-88
2022/11/10 05:45:13;;;;;;;19.65;6.15;;;;;;;6.42;100.00;101870.25;6306265;22;20040;-88
2022/11/10 05:47:39;;;;;;;20.30;6.22;;;;;;;6.43;100.00;101877.28;6307357;22;19996;-88
2022/11/10 05:50:05;;;;;;;21.17;7.35;;;;;;;6.37;100.00;101866.81;6304256;22;20432;-88
2022/11/10 05:52:30;;;;;;;26.23;7.70;;;;;;;6.30;100.00;101861.66;6305984;22;19999;-88
2022/11/10 05:54:56;;;;;;;16.85;6.45;;;;;;;6.33;100.00;101869.53;6307123;22;20011;-88
2022/11/10 05:57:21;;;;;;;22.70;7.28;;;;;;;6.34;100.00;101893.31;6279439;22;20007;-88
2022/11/10 05:59:46;;;;;;;28.88;8.18;;;;;;;6.30;100.00;101894.25;6308947;22;20026;-88
2022/11/10 06:02:12;;;;;;;21.77;7.18;;;;;;;6.29;100.00;101892.50;6281004;22;20059;-88
2022/11/10 06:04:37;;;;;;;22.70;6.95;;;;;;;6.31;100.00;101905.69;6306374;22;20015;-88
2022/11/10 06:07:03;;;;;;;23.65;7.55;;;;;;;6.26;100.00;101902.25;6307148;22;19999;-88
2022/11/10 06:09:28;;;;;;;21.40;7.00;;;;;;;6.24;100.00;101908.44;6309871;22;20447;-88
2022/11/10 06:11:53;;;;;;;23.50;7.82;;;;;;;6.26;100.00;101913.69;6314443;22;20010;-89
2022/11/10 06:14:19;;;;;;;18.83;7.50;;;;;;;6.20;100.00;101911.16;6313599;22;20010;-87
2022/11/10 06:16:44;;;;;;;20.13;7.47;;;;;;;6.20;100.00;101929.69;6291101;22;20433;-92
2022/11/10 06:19:09;;;;;;;25.27;7.97;;;;;;;6.20;100.00;101935.84;6290302;22;20082;-93
2022/11/10 06:21:34;;;;;;;22.33;7.53;;;;;;;6.20;100.00;101934.97;6325029;22;20055;-87
2022/11/10 06:24:00;;;;;;;21.50;7.85;;;;;;;6.18;100.00;101937.59;6303280;22;20008;-89
2022/11/10 06:26:25;;;;;;;21.48;8.75;;;;;;;6.17;100.00;101938.50;6305997;22;20052;-88
2022/11/10 06:28:50;;;;;;;24.73;8.57;;;;;;;5.97;100.00;101911.50;6306890;22;19995;-89
2022/11/10 06:31:16;;;;;;;22.65;8.32;;;;;;;6.08;100.00;101936.00;6305226;22;20429;-87
2022/11/10 06:33:41;;;;;;;24.40;8.32;;;;;;;6.10;100.00;101949.19;6303332;22;20023;-88
2022/11/10 06:36:08;;;;;;;21.55;8.25;;;;;;;6.08;100.00;101953.66;6278958;22;20080;-88
2022/11/10 06:38:33;;;;;;;23.88;8.38;;;;;;;6.11;100.00;101956.25;6285320;22;20060;-87
2022/11/10 06:40:58;;;;;;;23.48;8.65;;;;;;;6.09;100.00;101947.44;6312558;22;20495;-87
2022/11/10 06:43:24;;;;;;;28.45;9.35;;;;;;;6.03;100.00;101937.00;6282265;22;20078;-88
2022/11/10 06:45:49;;;;;;;29.17;9.90;;;;;;;6.08;100.00;101958.94;6311472;22;20028;-86
2022/11/10 06:48:14;;;;;;;31.13;9.23;;;;;;;6.14;100.00;101969.41;6304771;22;20003;-87
2022/11/10 06:50:40;;;;;;;25.42;8.45;;;;;;;6.16;100.00;101975.56;6301947;22;20007;-87
2022/11/10 06:53:06;;;;;;;26.48;8.68;;;;;;;6.11;100.00;101972.97;6275135;22;20007;-88
2022/11/10 06:55:31;;;;;;;21.23;7.63;;;;;;;6.18;100.00;101987.84;6278304;22;20086;-88
2022/11/10 06:57:57;;;;;;;23.85;8.38;;;;;;;6.17;100.00;101991.38;6275212;22;20009;-87
2022/11/10 07:00:24;;;;;;;25.55;8.38;;;;;;;6.21;100.00;102000.16;6276271;22;20348;-88
2022/11/10 07:03:00;;;;;;;16.20;7.30;;;;;;;6.10;100.00;101975.63;6302945;22;20031;-89
2022/11/10 07:05:25;;;;;;;19.52;7.40;;;;;;;6.25;100.00;101996.56;6305342;22;20035;-86
2022/11/10 07:07:51;;;;;;;23.55;8.27;;;;;;;6.26;100.00;102000.09;6275346;22;20045;-87
2022/11/10 07:10:16;;;;;;;22.65;9.30;;;;;;;6.31;100.00;101999.13;6302376;22;20006;-89
2022/11/10 07:12:41;;;;;;;29.33;9.02;;;;;;;6.35;100.00;102003.44;6302597;22;20003;-89
2022/11/10 07:15:07;;;;;;;26.13;7.85;;;;;;;6.32;100.00;102008.81;6302877;22;20026;-87
2022/11/10 07:17:40;;;;;;;24.23;8.65;;;;;;;6.40;100.00;102020.16;6302575;22;19999;-87
2022/11/10 07:20:06;;;;;;;23.40;10.05;;;;;;;6.42;100.00;102026.28;6304544;22;20003;-87
2022/11/10 07:22:32;;;;;;;22.40;7.50;;;;;;;6.41;100.00;102019.25;6306603;22;20046;-89
2022/11/10 07:24:57;;;;;;;25.23;7.63;;;;;;;6.47;100.00;102028.84;6304923;22;20003;-87
2022/11/10 07:27:22;;;;;;;21.40;7.93;;;;;;;6.54;100.00;102040.22;6305870;22;20003;-87
2022/11/10 07:29:48;;;;;;;25.60;7.43;;;;;;;6.54;100.00;102041.09;6304020;22;20010;-87
2022/11/10 07:32:13;;;;;;;22.80;8.10;;;;;;;6.57;100.00;102037.53;6301083;22;20496;-88
2022/11/10 07:34:39;;;;;;;22.08;8.13;;;;;;;6.60;100.00;102038.34;6303914;22;20033;-88
2022/11/10 07:37:04;;;;;;;22.60;7.93;;;;;;;6.61;100.00;102057.75;6275624;22;20007;-86
2022/11/10 07:39:29;;;;;;;21.08;7.25;;;;;;;6.67;100.00;102052.38;6303080;22;19987;-88
2022/11/10 07:41:56;;;;;;;24.27;8.18;;;;;;;6.66;100.00;102056.78;6305280;22;20038;-88
2022/11/10 07:44:22;;;;;;;21.98;7.80;;;;;;;6.65;100.00;102044.47;6303499;22;20010;-93
2022/11/10 07:46:47;;;;;;;20.98;7.57;;;;;;;6.78;100.00;102063.66;6279612;22;19999;-95
2022/11/10 07:49:13;;;;;;;20.50;8.23;;;;;;;6.81;100.00;102055.66;6308465;22;20017;-92
2022/11/10 07:51:38;;;;;;;17.45;6.57;;;;;;;6.80;100.00;102056.56;6312355;22;20003;-93
2022/11/10 07:54:03;;;;;;;18.48;6.82;;;;;;;6.89;100.00;102059.06;6308681;22;19998;-95
2022/11/10 07:56:29;;;;;;;18.42;7.40;;;;;;;6.83;100.00;102038.00;6319603;22;20041;-94
2022/11/10 07:58:54;;;;;;;18.23;7.13;;;;;;;7.02;100.00;102067.66;6324829;22;20331;-93
2022/11/10 08:01:19;;;;;;;19.40;7.38;;;;;;;7.07;100.00;102063.19;6318878;22;19991;-93
2022/11/10 08:03:45;;;;;;;20.17;7.05;;;;;;;7.12;100.00;102057.81;6315178;22;20007;-91
2022/11/10 08:06:10;;;;;;;23.10;7.13;;;;;;;7.12;100.00;102065.75;6312982;22;20429;-93
2022/11/10 08:08:35;;;;;;;22.60;7.07;;;;;;;7.14;100.00;102071.88;6284332;22;20003;-90
2022/11/10 08:11:01;;;;;;;14.93;6.55;;;;;;;7.21;100.00;102082.34;6310252;22;20313;-93
2022/11/10 08:13:26;;;;;;;17.88;6.72;;;;;;;7.16;100.00;102063.03;6310762;22;19999;-90
2022/11/10 08:15:51;;;;;;;15.25;6.72;;;;;;;7.25;100.00;102080.53;6311490;22;20064;-91
2022/11/10 08:18:21;;;;;;;19.95;6.70;;;;;;;7.36;100.00;102096.25;6308618;22;20003;-92
2022/11/10 08:20:47;;;;;;;23.63;7.65;;;;;;;7.39;100.00;102106.75;6307246;22;20074;-94
2022/11/10 08:23:14;;;;;;;23.63;6.50;;;;;;;7.36;100.00;102105.06;6307538;22;20006;-94
2022/11/10 08:25:39;;;;;;;17.33;6.00;;;;;;;7.42;100.00;102104.94;6307324;22;20025;-92
2022/11/10 08:28:13;;;;;;;19.42;6.32;;;;;;;7.44;100.00;102096.94;6305241;22;20082;-92
2022/11/10 08:30:40;;;;;;;25.20;7.60;;;;;;;7.49;100.00;102111.88;6306066;22;20092;-93
2022/11/10 08:33:08;;;;;;;22.75;7.25;;;;;;;7.60;100.00;102118.75;6279207;22;20078;-92
2022/11/10 08:35:36;;;;;;;24.50;6.35;;;;;;;7.65;100.00;102116.88;6306331;22;20007;-94
2022/11/10 08:38:13;;;;;;;19.17;6.10;;;;;;;7.65;100.00;102120.44;6307910;22;20046;-93
2022/11/10 08:40:39;;;;;;;23.80;6.38;;;;;;;7.66;100.00;102105.41;6308483;22;20372;-92
2022/11/10 08:43:06;;;;;;;23.42;6.50;;;;;;;7.78;100.00;102121.09;6279204;22;20495;-92
2022/11/10 08:45:35;;;;;;;16.63;6.00;;;;;;;7.80;100.00;102100.72;6308051;22;20014;-92
2022/11/10 08:48:08;;;;;;;14.95;6.20;;;;;;;7.90;100.00;102118.19;6281110;22;20082;-91
2022/11/10 08:50:33;;;;;;;21.50;6.67;;;;;;;7.95;100.00;102126.06;6310623;22;20003;-96
2022/11/10 08:53:04;;;;;;;17.48;6.22;;;;;;;7.95;100.00;102116.31;6309282;22;20007;-94
2022/11/10 08:55:29;;;;;;;17.80;6.28;;;;;;;7.99;100.00;102115.38;6306177;22;20066;-94
2022/11/10 08:58:03;;;;;;;17.65;6.15;;;;;;;8.09;100.00;102124.00;6306899;22;20007;-93
2022/11/10 09:00:30;;;;;;;18.48;5.68;;;;;;;8.16;100.00;102127.41;6306164;22;20090;-94
2022/11/10 09:03:04;;;;;;;20.90;6.85;;;;;;;8.18;100.00;102130.88;6281281;22;20018;-95
2022/11/10 09:05:30;;;;;;;20.02;6.82;;;;;;;8.27;100.00;102130.69;6314048;22;19999;-96
2022/11/10 09:07:55;;;;;;;19.73;6.68;;;;;;;8.35;100.00;102135.84;6313999;22;20302;-96
2022/11/10 09:10:20;;;;;;;21.85;6.68;;;;;;;8.40;100.00;102147.25;6307253;22;20056;-93
2022/11/10 09:12:46;;;;;;;18.98;5.88;;;;;;;8.40;100.00;102134.00;6309414;22;20086;-92
2022/11/10 09:15:12;;;;;;;16.55;6.00;;;;;;;8.44;100.00;102133.03;6320591;22;19995;-91
2022/11/10 09:17:39;;;;;;;24.98;7.45;;;;;;;8.54;100.00;102142.56;6317021;22;20004;-89
2022/11/10 09:20:06;;;;;;;18.65;5.88;;;;;;;8.47;100.00;102131.19;6311654;22;20000;-93
2022/11/10 09:22:35;;;;;;;21.85;6.05;;;;;;;8.64;100.00;102157.34;6304124;22;20007;-92
2022/11/10 09:25:01;;;;;;;19.83;5.93;;;;;;;8.70;100.00;102151.06;6278841;22;20085;-92
2022/11/10 09:27:26;;;;;;;16.63;6.00;;;;;;;8.78;100.00;102156.16;6300688;22;19999;-88
2022/11/10 09:29:52;;;;;;;15.75;5.50;;;;;;;8.74;100.00;102144.78;6274858;22;20003;-88
2022/11/10 09:32:17;;;;;;;20.40;6.47;;;;;;;8.87;100.00;102158.66;6273952;22;20015;-92
2022/11/10 09:34:42;;;;;;;19.58;5.82;;;;;;;8.89;100.00;102155.03;6272059;22;20017;-86
2022/11/10 09:37:08;;;;;;;16.65;5.75;;;;;;;9.02;100.00;102154.75;6274619;22;20082;-90
2022/11/10 09:39:33;;;;;;;20.77;6.03;;;;;;;9.08;100.00;102173.22;6299011;22;20038;-90
2022/11/10 09:41:58;;;;;;;15.43;5.90;;;;;;;9.11;100.00;102163.41;6300256;22;20011;-90
2022/11/10 09:44:29;;;;;;;16.33;5.53;;;;;;;9.12;100.00;102158.94;6272019;22;20431;-90
2022/11/10 09:47:13;;;;;;;18.83;5.82;;;;;;;9.24;100.00;102163.97;6273422;22;20428;-89
2022/11/10 09:49:48;;;;;;;17.98;5.07;;;;;;;9.24;100.00;102163.97;6297248;22;20018;-87
2022/11/10 09:52:16;;;;;;;16.70;5.40;;;;;;;9.32;100.00;102175.28;6301906;22;20007;-89
2022/11/10 09:54:57;;;;;;;19.38;5.15;;;;;;;9.36;100.00;102173.41;6272504;22;20011;-87
2022/11/10 09:57:25;;;;;;;18.33;5.20;;;;;;;9.45;100.00;102179.38;6271736;22;20015;-89
2022/11/10 09:59:51;;;;;;;13.80;4.88;;;;;;;9.49;100.00;102169.56;6298584;22;20006;-88
2022/11/10 10:02:27;;;;;;;15.43;4.40;;;;;;;9.48;100.00;102171.31;6298640;22;20023;-88
2022/11/10 10:05:28;;;;;;;17.80;5.28;;;;;;;9.59;100.00;102170.19;6271702;22;20015;-89
2022/11/10 10:08:05;;;;;;;15.65;5.32;;;;;;;9.60;100.00;102167.47;6298107;22;20003;-90
2022/11/10 10:10:45;;;;;;;20.40;5.68;;;;;;;9.67;100.00;102158.44;6302477;22;20003;-88
2022/11/10 10:13:45;;;;;;;14.43;5.00;;;;;;;9.75;100.00;102174.19;6271697;22;20007;-89
2022/11/10 10:16:45;;;;;;;18.98;4.97;;;;;;;9.85;100.00;102172.16;6273149;22;20011;-88
2022/11/10 10:19:21;;;;;;;14.85;5.20;;;;;;;9.92;100.00;102187.91;6246935;22;20010;-88
2022/11/10 10:22:11;;;;;;;14.68;4.63;;;;;;;10.00;100.00;102184.19;6304523;22;20158;-89
2022/11/10 10:24:37;;;;;;;12.35;4.43;;;;;;;10.03;100.00;102181.41;6302475;22;20105;-89
2022/11/10 10:27:05;;;;;;;18.23;4.93;;;;;;;10.14;100.00;102182.88;6302346;22;20341;-91
2022/11/10 10:29:38;;;;;;;19.48;5.50;;;;;;;10.19;100.00;102186.28;6301747;22;20034;-88
2022/11/10 10:32:08;;;;;;;15.40;4.57;;;;;;;10.27;100.00;102201.19;6324318;22;20006;-89
2022/11/10 10:34:35;;;;;;;18.48;4.95;;;;;;;10.34;100.00;102195.66;6323119;22;20027;-89
2022/11/10 10:37:00;;;;;;;15.07;4.63;;;;;;;10.39;98.81;102192.88;6325773;22;20356;-89
2022/11/10 10:39:33;;;;;;;13.77;4.93;;;;;;;10.52;98.93;102206.69;6312297;22;20489;-89
2022/11/10 10:41:58;;;;;;;14.47;4.40;;;;;;;10.52;99.42;102196.03;6306995;22;20052;-89
2022/11/10 10:44:24;;;;;;;14.13;4.35;;;;;;;10.57;99.17;102210.09;6309444;22;20443;-90
2022/11/10 10:46:55;;;;;;;12.52;3.67;;;;;;;10.68;96.58;102222.19;6310218;22;19991;-89
2022/11/10 10:49:22;;;;;;;17.83;3.83;;;;;;;10.76;95.40;102218.41;6282569;22;20007;-89
2022/11/10 10:51:49;;;;;;;15.35;4.38;;;;;;;10.75;94.72;102224.69;6306585;22;20073;-89
2022/11/10 10:54:35;;;;;;;12.45;3.92;;;;;;;10.77;96.40;102228.16;6305853;22;20011;-88
2022/11/10 10:57:17;;;;;;;14.02;3.50;;;;;;;10.84;95.53;102233.25;6280144;22;20011;-88
2022/11/10 10:59:43;;;;;;;11.38;3.60;;;;;;;10.85;94.72;102234.13;6308788;22;19999;-90
2022/11/10 11:02:26;;;;;;;11.15;2.75;;;;;;;10.90;94.89;102230.38;6307475;22;20088;-89
2022/11/10 11:05:14;;;;;;;13.00;3.78;;;;;;;10.95;95.21;102231.16;6307994;22;20003;-90
2022/11/10 11:07:39;;;;;;;12.48;3.30;;;;;;;11.02;93.60;102225.63;6307544;22;20018;-90
2022/11/10 11:10:23;;;;;;;17.33;3.85;;;;;;;11.07;93.70;102223.69;6305912;22;20394;-90
2022/11/10 11:12:48;;;;;;;;;;;;;;;11.17;94.24;102234.03;6279626;22;20007;-90
2022/11/10 11:15:28;;;;;;;12.15;3.10;;;;;;;11.30;91.85;102239.84;6302922;22;19918;-91
2022/11/10 11:18:01;;;;;;;13.13;3.47;;;;;;;11.43;89.40;102234.97;6305329;22;20011;-89
2022/11/10 11:20:42;;;;;;;14.27;3.80;;;;;;;11.44;90.51;102226.91;6275900;22;20310;-90
2022/11/10 11:23:26;;;;;;;14.20;3.50;;;;;;;11.56;89.38;102230.13;6276610;22;20026;-90
2022/11/10 11:25:57;;;;;;;15.15;3.75;;;;;;;11.53;89.40;102232.88;6305447;22;20086;-90
2022/11/10 11:28:34;;;;;;;12.27;3.05;;;;;;;11.58;89.82;102239.81;6307647;22;20440;-88
2022/11/10 11:31:22;;;;;;;10.32;2.70;;;;;;;11.62;90.67;102230.81;6309027;22;20009;-90
2022/11/10 11:33:59;;;;;;;11.82;3.17;;;;;;;11.65;89.08;102222.69;6308282;22;20026;-90
2022/11/10 11:36:47;;;;;;;11.18;2.70;;;;;;;11.79;87.93;102232.91;6286742;22;20094;-90